Time;durP1;ratioP1;P1;durP2;ratioP2;P2;SDS_P1;SDS_P2;PMS_P1;PMS_P2;Temp;Humidity;BMP_temperature;BMP_pressure;BME280_temperature;BME280_humidity;BME280_pressure;Samples;Min_cycle;Max_cycle;Signal;HPM_P1;HPM_P2
2023/03/06 07:51:21;;;;;;;;;11.25;8.75;;;;;17.67;44.78;100604.84;5098897;27;46450;-78
2023/03/06 07:53:48;;;;;;;;;9.50;8.50;;;;;18.19;45.32;100601.25;5075859;27;45669;-77
2023/03/06 07:56:14;;;;;;;;;6.50;6.50;;;;;18.91;45.47;100609.19;5080679;27;45523;-78
2023/03/06 07:58:42;;;;;;;;;10.50;6.50;;;;;19.75;45.41;100603.31;5088168;27;45430;-77
2023/03/06 08:01:12;;;;;;;;;10.25;9.00;;;;;20.58;45.05;100606.19;5088569;27;46137;-77
2023/03/06 08:03:37;;;;;;;;;7.50;4.50;;;;;21.33;44.41;100605.03;5087090;27;45818;-76
2023/03/06 08:06:06;;;;;;;;;7.00;7.00;;;;;22.03;43.58;100602.47;5087850;27;45383;-79
2023/03/06 08:08:34;;;;;;;;;9.75;8.00;;;;;22.61;43.23;100603.50;5106105;27;45630;-77
2023/03/06 08:10:59;;;;;;;;;8.00;8.00;;;;;23.15;42.60;100604.94;5088683;27;45579;-78
2023/03/06 08:13:24;;;;;;;;;7.75;6.50;;;;;23.62;42.00;100604.41;5087357;27;45493;-76
2023/03/06 08:15:50;;;;;;;;;9.75;8.00;;;;;24.03;41.73;100606.16;5088975;27;45572;-78
2023/03/06 08:18:15;;;;;;;;;9.00;8.25;;;;;24.39;40.86;100604.84;5086878;27;46744;-78
2023/03/06 08:20:40;;;;;;;;;7.50;7.50;;;;;24.70;40.33;100612.13;5086019;27;46194;-77
2023/03/06 08:23:06;;;;;;;;;9.75;7.50;;;;;24.97;39.96;100604.50;5084347;27;45379;-77
2023/03/06 08:25:31;;;;;;;;;7.00;5.00;;;;;25.22;39.23;100613.25;5088667;27;45375;-77
2023/03/06 08:27:56;;;;;;;;;7.00;7.00;;;;;25.44;39.04;100609.84;5077750;27;45406;-77
2023/03/06 08:30:21;;;;;;;;;7.00;7.00;;;;;25.61;38.92;100605.13;5089679;27;46659;-77
2023/03/06 08:32:47;;;;;;;;;9.00;7.33;;;;;25.79;38.65;100602.06;5086432;27;45458;-79
2023/03/06 08:35:12;;;;;;;;;7.33;6.67;;;;;25.93;38.27;100603.06;5089114;27;45431;-77
2023/03/06 08:37:38;;;;;;;;;5.33;5.33;;;;;26.08;37.64;100607.66;5090222;27;45518;-78
2023/03/06 08:40:03;;;;;;;;;6.33;6.33;;;;;26.19;37.54;100604.44;5088842;27;48784;-77
2023/03/06 08:42:29;;;;;;;;;9.00;7.33;;;;;26.34;36.96;100609.03;5087443;27;45411;-78
2023/03/06 08:44:55;;;;;;;;;7.33;6.00;;;;;26.42;37.43;100631.56;5087837;27;45432;-74
2023/03/06 08:47:20;;;;;;;;;6.00;6.00;;;;;26.52;36.65;100612.19;5083929;27;46259;-74
2023/03/06 08:49:46;;;;;;;;;7.33;6.00;;;;;26.60;36.63;100616.69;5077952;27;45411;-74
2023/03/06 08:52:12;;;;;;;;;6.00;4.00;;;;;26.65;36.30;100608.78;5076935;27;45703;-74
2023/03/06 08:54:38;;;;;;;;;7.00;7.00;;;;;26.70;35.79;100611.75;5088476;27;45664;-74
2023/03/06 08:57:03;;;;;;;;;6.33;5.67;;;;;26.73;36.00;100612.44;5089456;27;45445;-74
2023/03/06 08:59:29;;;;;;;;;5.67;5.33;;;;;26.77;35.86;100617.28;5070497;27;45647;-74
2023/03/06 09:01:54;;;;;;;;;8.00;6.00;;;;;26.80;35.29;100621.50;5062064;27;45802;-74
2023/03/06 09:04:20;;;;;;;;;7.33;6.00;;;;;26.82;35.16;100627.59;5061416;27;45446;-75
2023/03/06 09:06:45;;;;;;;;;7.00;7.00;;;;;26.82;34.70;100625.69;5071333;27;45835;-75
2023/03/06 09:09:12;;;;;;;;;6.33;6.33;;;;;26.87;35.08;100629.72;5075343;28;46530;-75
2023/03/06 09:11:38;;;;;;;;;6.33;6.33;;;;;26.88;34.35;100634.97;5076247;27;45368;-77
2023/03/06 09:14:04;;;;;;;;;5.33;5.33;;;;;26.95;34.78;100630.50;5073131;28;45486;-75
2023/03/06 09:16:30;;;;;;;;;7.33;5.67;;;;;27.00;34.52;100629.91;5075056;27;45448;-74
2023/03/06 09:18:57;;;;;;;;;10.33;7.33;;;;;27.04;34.23;100638.50;5074710;27;45572;-74
2023/03/06 09:21:25;;;;;;;;;8.33;5.67;;;;;27.10;34.68;100643.19;5070089;27;45563;-74
2023/03/06 09:23:50;;;;;;;;;5.00;5.00;;;;;27.14;34.59;100644.47;5073493;27;45419;-75
2023/03/06 09:26:16;;;;;;;;;8.00;6.33;;;;;27.17;33.77;100643.22;5068058;27;45524;-77
2023/03/06 09:28:41;;;;;;;;;6.00;6.00;;;;;27.21;33.48;100648.13;5069202;27;46348;-80
2023/03/06 09:31:13;;;;;;;;;5.00;5.00;;;;;27.27;33.52;100651.09;5063001;27;45527;-75
2023/03/06 09:33:39;;;;;;;;;7.67;5.00;;;;;27.29;33.47;100647.13;5055477;28;45465;-75
2023/03/06 09:36:06;;;;;;;;;7.33;6.00;;;;;27.31;33.25;100644.22;5061198;28;45411;-74
2023/03/06 09:38:32;;;;;;;;;8.33;7.33;;;;;27.32;33.24;100646.75;5075276;27;45513;-75
2023/03/06 09:40:57;;;;;;;;;7.67;7.67;;;;;27.35;33.47;100645.50;5069396;27;45534;-75
2023/03/06 09:43:39;;;;;;;;;6.00;6.00;;;;;27.35;32.66;100653.69;5067380;27;45473;-73
2023/03/06 09:46:19;;;;;;;;;10.67;7.00;;;;;27.30;33.07;100650.72;5056266;27;45758;-72
2023/03/06 09:48:53;;;;;;;;;7.67;7.00;;;;;27.27;32.50;100654.66;5072940;27;45758;-75
2023/03/06 09:51:26;;;;;;;;;4.00;4.00;;;;;27.24;32.60;100655.06;5072514;27;45469;-76
2023/03/06 09:53:57;;;;;;;;;7.67;6.67;;;;;27.25;32.60;100662.19;5067289;27;45510;-75
2023/03/06 09:56:29;;;;;;;;;7.67;7.67;;;;;27.26;32.73;100663.03;5065874;28;45474;-77
2023/03/06 09:59:02;;;;;;;;;8.00;7.00;;;;;27.28;32.11;100666.41;5074204;28;45392;-76
2023/03/06 10:01:33;;;;;;;;;5.67;5.33;;;;;27.30;32.10;100659.72;5066365;28;45517;-77
2023/03/06 10:03:59;;;;;;;;;5.33;5.00;;;;;27.35;32.09;100656.41;5075034;27;45458;-78
2023/03/06 10:06:33;;;;;;;;;6.00;6.00;;;;;27.38;32.15;100653.28;5073213;28;45626;-79
2023/03/06 10:09:20;;;;;;;;;6.00;5.00;;;;;27.43;32.21;100653.53;5072825;28;46224;-77
2023/03/06 10:11:56;;;;;;;;;5.00;5.00;;;;;27.46;31.99;100657.75;5074342;27;45457;-75
2023/03/06 10:14:39;;;;;;;;;4.00;4.00;;;;;27.48;32.05;100651.06;5063309;27;45494;-71
2023/03/06 10:17:13;;;;;;;;;5.00;5.00;;;;;27.51;31.78;100646.25;5065805;28;45658;-71
2023/03/06 10:19:38;;;;;;;;;5.00;5.00;;;;;27.49;31.29;100641.00;5074559;27;45492;-71
2023/03/06 10:22:27;;;;;;;;;7.00;6.00;;;;;27.46;30.98;100639.50;5067188;27;45654;-71
2023/03/06 10:25:04;;;;;;;;;4.00;4.00;;;;;27.42;30.84;100643.66;5067995;27;45644;-71
2023/03/06 10:27:48;;;;;;;;;8.00;7.00;;;;;27.36;31.17;100639.88;5071345;28;45719;-71
2023/03/06 10:30:41;;;;;;;;;5.00;5.00;;;;;27.33;31.31;100639.41;5060613;28;46379;-71
2023/03/06 10:33:21;;;;;;;;;7.00;6.00;;;;;27.31;31.45;100636.03;5061781;28;45459;-71
2023/03/06 10:35:52;;;;;;;;;7.00;5.00;;;;;27.29;30.81;100632.66;5072487;27;45896;-71
2023/03/06 10:38:37;;;;;;;;;6.00;5.00;;;;;27.28;30.99;100630.97;5060073;27;45423;-71
2023/03/06 10:41:07;;;;;;;;;6.67;6.00;;;;;27.26;30.80;100623.00;5062870;28;45624;-71
2023/03/06 10:43:34;;;;;;;;;7.00;6.00;;;;;27.25;30.72;100628.66;5057189;27;45389;-71
2023/03/06 10:46:00;;;;;;;;;8.00;7.00;;;;;27.25;30.73;100628.66;5065228;27;45628;-71
2023/03/06 10:48:28;;;;;;;;;6.67;6.67;;;;;27.22;30.65;100630.72;5063103;27;45421;-71
2023/03/06 10:51:14;;;;;;;;;7.00;7.00;;;;;27.24;30.39;100619.63;5063432;27;45932;-71
2023/03/06 10:54:12;;;;;;;;;6.33;6.00;;;;;27.25;30.10;100625.94;5065204;27;45547;-71
2023/03/06 10:56:44;;;;;;;;;9.33;7.00;;;;;27.22;30.36;100619.81;5065038;27;45807;-71
2023/03/06 10:59:16;;;;;;;;;7.33;7.00;;;;;27.22;30.13;100617.09;5063225;27;45426;-74
2023/03/06 11:01:44;;;;;;;;;5.67;5.67;;;;;27.21;30.66;100609.97;5081217;27;48079;-78
2023/03/06 11:04:32;;;;;;;;;8.67;7.00;;;;;27.23;30.18;100604.34;5060774;27;45531;-79
2023/03/06 11:07:17;;;;;;;;;6.00;6.00;;;;;27.26;30.00;100594.91;5062427;27;45589;-77
2023/03/06 11:10:04;;;;;;;;;7.33;6.00;;;;;27.30;30.08;100602.47;5067707;27;45661;-76
2023/03/06 11:12:38;;;;;;;;;7.33;5.67;;;;;27.36;29.86;100603.59;5062401;27;46215;-79
2023/03/06 11:15:23;;;;;;;;;7.00;6.00;;;;;27.43;30.50;100614.53;5072497;27;45445;-78
2023/03/06 11:17:51;;;;;;;;;4.67;4.67;;;;;27.46;29.94;100604.06;5070852;27;45510;-78
2023/03/06 11:20:31;;;;;;;;;7.67;5.00;;;;;27.51;29.82;100611.69;5072891;27;45485;-76
2023/03/06 11:23:18;;;;;;;;;6.00;4.00;;;;;27.55;30.50;100601.22;5069741;28;45917;-78
2023/03/06 11:25:56;;;;;;;;;7.00;5.67;;;;;27.57;30.32;100593.66;5073211;27;45434;-77
2023/03/06 11:28:36;;;;;;;;;4.67;3.00;;;;;27.60;30.18;100599.59;5072399;27;45872;-76
2023/03/06 11:31:09;;;;;;;;;4.67;4.33;;;;;27.61;30.28;100595.84;5061300;28;45379;-76
2023/03/06 11:33:55;;;;;;;;;6.00;5.33;;;;;27.64;29.76;100596.47;5063563;27;46218;-76
2023/03/06 11:36:38;;;;;;;;;8.00;6.33;;;;;27.65;29.94;100593.53;5070932;27;45312;-77
2023/03/06 11:39:21;;;;;;;;;5.33;5.33;;;;;27.64;30.42;100588.28;5073363;27;45701;-76
2023/03/06 11:42:07;;;;;;;;;7.00;7.00;;;;;27.68;30.47;100598.59;5057452;27;45494;-76
2023/03/06 11:44:48;;;;;;;;;5.33;5.33;;;;;27.70;30.28;100596.50;5068687;27;46250;-76
2023/03/06 11:47:24;;;;;;;;;7.33;5.33;;;;;27.72;29.79;100594.41;5073348;27;45406;-78
2023/03/06 11:50:04;;;;;;;;;5.00;5.00;;;;;27.75;29.82;100585.00;5066157;27;45525;-75
2023/03/06 11:52:52;;;;;;;;;6.00;4.00;;;;;27.79;30.36;100590.91;5073634;27;45495;-77
2023/03/06 11:55:27;;;;;;;;;5.33;5.33;;;;;27.80;29.90;100587.97;5071224;27;46332;-76
2023/03/06 11:58:10;;;;;;;;;5.00;4.67;;;;;27.82;29.82;100585.88;5072701;27;45325;-77
2023/03/06 12:01:00;;;;;;;;;7.33;6.00;;;;;27.85;30.16;100577.31;5064795;27;45445;-78
2023/03/06 12:03:51;;;;;;;;;4.33;4.00;;;;;27.88;30.20;100586.97;5071443;27;45541;-80
2023/03/06 12:06:45;;;;;;;;;7.67;7.00;;;;;27.89;29.67;100572.28;5072169;27;46190;-72
2023/03/06 12:09:10;;;;;;;;;5.00;5.00;;;;;27.89;29.70;100569.56;5021948;28;45519;-72
2023/03/06 12:11:57;;;;;;;;;4.00;4.00;;;;;27.86;30.11;100565.34;5016651;28;45595;-73
2023/03/06 12:14:49;;;;;;;;;4.67;4.67;;;;;27.85;29.93;100566.41;5018712;28;45610;-71
2023/03/06 12:17:59;;;;;;;;;5.00;3.33;;;;;27.83;29.22;100564.91;5023064;28;45344;-71
2023/03/06 12:20:45;;;;;;;;;5.33;5.33;;;;;27.74;29.06;100559.63;5021396;28;45525;-70
2023/03/06 12:23:29;;;;;;;;;5.00;5.00;;;;;27.70;29.32;100557.47;5013250;28;45657;-70
2023/03/06 12:26:25;;;;;;;;;6.00;6.00;;;;;27.62;28.89;100559.34;5021560;28;45725;-70
2023/03/06 12:29:19;;;;;;;;;8.00;5.33;;;;;27.57;29.48;100558.22;5017904;28;46733;-70
2023/03/06 12:32:07;;;;;;;;;6.00;6.00;;;;;27.51;29.38;100549.00;4981957;28;45620;-70
2023/03/06 12:34:53;;;;;;;;;5.00;5.00;;;;;27.48;29.04;100552.09;4981312;28;45575;-71
2023/03/06 12:37:44;;;;;;;;;6.33;4.67;;;;;27.45;28.75;100553.34;4996785;28;45874;-71
2023/03/06 12:40:12;;;;;;;;;6.67;4.33;;;;;27.41;28.39;100546.59;4971665;28;47151;-71
2023/03/06 12:43:09;;;;;;;;;4.33;4.33;;;;;27.35;28.91;100539.25;4984925;28;45517;-71
2023/03/06 12:45:37;;;;;;;;;6.00;6.00;;;;;27.32;29.05;100535.03;4990011;28;45619;-71
2023/03/06 12:48:13;;;;;;;;;5.00;5.00;;;;;27.30;29.24;100545.25;5026444;28;45572;-71
2023/03/06 12:50:43;;;;;;;;;7.00;7.00;;;;;27.29;28.81;100535.41;5022820;28;45923;-71
2023/03/06 12:53:15;;;;;;;;;4.67;4.67;;;;;27.28;28.73;100533.75;5018500;28;45621;-71
2023/03/06 12:55:45;;;;;;;;;6.33;6.33;;;;;27.25;28.73;100530.56;5019550;28;45657;-71
2023/03/06 12:58:29;;;;;;;;;5.33;5.33;;;;;27.24;28.83;100532.44;5026353;28;45667;-70
2023/03/06 13:00:59;;;;;;;;;5.33;5.33;;;;;27.23;28.93;100533.50;5032848;28;45386;-71
2023/03/06 13:03:46;;;;;;;;;7.00;5.00;;;;;27.22;29.10;100532.66;5032218;28;45425;-70
2023/03/06 13:06:26;;;;;;;;;7.00;7.00;;;;;27.22;28.94;100538.09;5032224;28;45616;-69
2023/03/06 13:09:26;;;;;;;;;4.00;4.00;;;;;27.20;28.82;100526.56;5063259;28;45482;-71
2023/03/06 13:12:23;;;;;;;;;9.00;4.67;;;;;27.20;28.17;100533.88;5029770;28;46259;-73
2023/03/06 13:14:52;;;;;;;;;7.00;5.67;;;;;27.18;28.28;100531.34;5017211;28;45399;-72
2023/03/06 13:17:23;;;;;;;;;4.00;4.00;;;;;27.22;28.42;100534.53;5030536;28;45331;-73
2023/03/06 13:20:28;;;;;;;;;6.00;6.00;;;;;27.23;28.55;100534.31;5032585;28;45442;-73
2023/03/06 13:22:54;;;;;;;;;7.00;4.33;;;;;27.28;28.46;100532.88;5017667;28;47587;-73
2023/03/06 13:25:19;;;;;;;;;4.67;4.00;;;;;27.33;28.47;100530.41;5031236;28;45469;-73
2023/03/06 13:27:44;;;;;;;;;6.33;4.67;;;;;27.40;28.73;100535.91;5032541;28;45426;-73
2023/03/06 13:30:31;;;;;;;;;6.67;5.00;;;;;27.48;29.08;100525.69;5029780;28;45552;-74
2023/03/06 13:32:56;;;;;;;;;6.67;6.00;;;;;27.57;29.17;100533.69;5030744;28;45721;-73
2023/03/06 13:35:33;;;;;;;;;5.00;4.33;;;;;27.65;28.99;100536.28;5027889;28;46428;-74
2023/03/06 13:37:59;;;;;;;;;5.00;5.00;;;;;27.74;28.76;100535.09;5032123;28;45584;-73
2023/03/06 13:40:26;;;;;;;;;4.00;4.00;;;;;27.83;28.69;100527.56;5027623;28;47083;-74
2023/03/06 13:42:51;;;;;;;;;4.00;4.00;;;;;27.93;28.61;100526.34;5031669;28;46568;-74
2023/03/06 13:45:24;;;;;;;;;5.00;4.67;;;;;28.03;28.68;100521.34;5021453;28;45455;-74
2023/03/06 13:47:52;;;;;;;;;4.67;4.67;;;;;28.12;28.67;100520.13;5058028;28;45813;-74
2023/03/06 13:50:40;;;;;;;;;4.33;4.33;;;;;28.17;28.87;100505.88;5066246;28;45707;-73
2023/03/06 13:53:24;;;;;;;;;4.67;4.00;;;;;28.26;29.17;100510.13;5058772;28;46385;-74
2023/03/06 13:55:58;;;;;;;;;4.00;3.00;;;;;28.31;29.30;100516.84;5074100;28;45394;-73
2023/03/06 13:58:48;;;;;;;;;6.00;6.00;;;;;28.34;28.62;100513.69;5073097;27;45473;-74
2023/03/06 14:01:19;;;;;;;;;4.00;4.00;;;;;28.35;28.59;100513.50;5068730;28;45619;-74
2023/03/06 14:04:05;;;;;;;;;4.67;4.00;;;;;28.37;28.56;100510.56;5057571;28;46157;-74
2023/03/06 14:06:33;;;;;;;;;6.00;4.67;;;;;28.38;28.85;100513.09;5073065;28;45329;-74
2023/03/06 14:09:00;;;;;;;;;5.00;4.00;;;;;28.38;29.24;100507.63;5070027;27;45432;-73
2023/03/06 14:11:26;;;;;;;;;6.00;4.00;;;;;28.39;28.94;100501.13;5073993;27;45405;-73
2023/03/06 14:13:55;;;;;;;;;3.00;3.00;;;;;28.41;29.37;100506.38;5075332;27;46361;-72
2023/03/06 14:16:26;;;;;;;;;7.00;4.00;;;;;28.42;29.18;100508.06;5075033;27;45399;-73
2023/03/06 14:18:54;;;;;;;;;3.67;3.67;;;;;28.43;29.12;100508.88;5074741;27;45541;-74
2023/03/06 14:21:45;;;;;;;;;3.00;3.00;;;;;28.43;28.83;100501.53;5073459;28;45494;-74
2023/03/06 14:24:16;;;;;;;;;3.67;3.67;;;;;28.45;28.77;100496.72;5074440;27;45747;-75
2023/03/06 14:26:45;;;;;;;;;4.00;3.33;;;;;28.49;29.25;100503.44;5073519;27;45458;-74
2023/03/06 14:29:23;;;;;;;;;3.33;3.33;;;;;28.54;28.93;100509.09;5074916;27;45784;-74
2023/03/06 14:31:51;;;;;;;;;3.67;3.67;;;;;28.57;28.96;100507.84;5075097;27;45355;-75
2023/03/06 14:34:21;;;;;;;;;3.67;3.67;;;;;28.60;28.84;100498.44;5068993;28;45649;-75
2023/03/06 14:36:49;;;;;;;;;5.00;4.00;;;;;28.65;28.42;100506.81;5086559;27;46023;-76
2023/03/06 14:39:21;;;;;;;;;2.67;2.67;;;;;28.68;29.11;100506.38;5069340;27;45451;-74
2023/03/06 14:41:46;;;;;;;;;3.00;3.00;;;;;28.71;28.41;100503.25;5066749;27;45514;-79
2023/03/06 14:44:20;;;;;;;;;4.00;4.00;;;;;28.73;28.43;100498.41;5062795;27;46251;-75
2023/03/06 14:46:48;;;;;;;;;3.67;3.00;;;;;28.73;29.16;100494.84;5069979;28;45427;-76
2023/03/06 14:49:16;;;;;;;;;3.00;3.00;;;;;28.73;29.06;100494.84;5066799;27;45557;-76
2023/03/06 14:51:52;;;;;;;;;3.00;3.00;;;;;28.74;28.80;100496.53;5068159;27;45573;-79
2023/03/06 14:54:21;;;;;;;;;5.00;3.00;;;;;28.73;28.55;100500.31;5066853;28;46775;-77
2023/03/06 14:56:52;;;;;;;;;5.00;3.33;;;;;28.73;28.36;100492.94;5073717;27;45782;-86
2023/03/06 14:59:24;;;;;;;;;4.00;4.00;;;;;28.76;29.02;100499.88;5067245;27;45457;-82
2023/03/06 15:01:55;;;;;;;;;4.67;4.67;;;;;28.80;28.82;100496.53;5076166;27;45599;-82
2023/03/06 15:04:33;;;;;;;;;4.00;2.67;;;;;28.82;28.72;100490.00;5072546;28;46605;-78
2023/03/06 15:06:59;;;;;;;;;3.00;3.00;;;;;28.89;29.28;100494.44;5075466;27;45427;-79
2023/03/06 15:09:30;;;;;;;;;3.33;3.00;;;;;28.94;28.85;100488.38;5076901;27;45376;-82
2023/03/06 15:12:03;;;;;;;;;4.00;3.67;;;;;28.98;29.40;100489.59;5076211;27;45529;-81
2023/03/06 15:14:37;;;;;;;;;3.67;3.67;;;;;29.05;28.81;100484.13;5072458;28;46471;-78
2023/03/06 15:17:18;;;;;;;;;3.00;3.00;;;;;29.09;29.04;100484.56;5072701;28;45361;-75
2023/03/06 15:19:45;;;;;;;;;5.33;5.33;;;;;29.06;27.89;100483.91;5073055;27;45387;-75
2023/03/06 15:22:39;;;;;;;;;4.33;4.33;;;;;28.98;27.54;100484.13;5073781;27;45489;-78
2023/03/06 15:25:26;;;;;;;;;5.00;4.00;;;;;28.90;27.44;100495.31;5074997;27;47247;-77
2023/03/06 15:27:53;;;;;;;;;3.00;3.00;;;;;28.83;27.78;100486.22;5073845;27;45421;-76
2023/03/06 15:30:30;;;;;;;;;3.33;3.33;;;;;28.83;27.78;100486.22;5073733;27;45570;-76
2023/03/06 15:33:28;;;;;;;;;4.67;4.00;;;;;28.86;28.07;100488.53;5073252;27;45414;-76
2023/03/06 15:36:04;;;;;;;;;4.00;3.33;;;;;28.92;27.82;100493.19;5014095;28;47510;-75
2023/03/06 15:38:40;;;;;;;;;4.67;4.67;;;;;29.00;28.44;100483.94;5027272;28;45641;-76
2023/03/06 15:41:36;;;;;;;;;4.67;3.33;;;;;29.10;27.58;100486.25;5025379;28;45574;-74
2023/03/06 15:44:11;;;;;;;;;4.00;4.00;;;;;29.20;28.40;100489.38;5030981;28;45458;-76
2023/03/06 15:46:36;;;;;;;;;6.33;4.00;;;;;29.28;28.07;100480.09;5029690;28;46438;-77
2023/03/06 15:49:02;;;;;;;;;3.00;3.00;;;;;29.37;28.04;100487.00;5044564;28;45600;-76
2023/03/06 15:51:32;;;;;;;;;3.00;3.00;;;;;29.42;27.52;100480.91;5025245;28;46560;-79
2023/03/06 15:53:58;;;;;;;;;3.00;3.00;;;;;29.51;28.31;100479.63;5026682;28;45590;-78
2023/03/06 15:56:28;;;;;;;;;3.00;3.00;;;;;29.57;27.67;100476.06;5030174;28;45476;-74
2023/03/06 15:58:55;;;;;;;;;3.00;3.00;;;;;29.63;28.23;100468.03;5030054;28;45994;-76
2023/03/06 16:01:21;;;;;;;;;2.00;2.00;;;;;29.67;27.84;100474.75;5027734;28;45699;-77
2023/03/06 16:03:46;;;;;;;;;4.33;2.33;;;;;29.66;27.48;100464.84;5029514;28;45452;-78
2023/03/06 16:06:19;;;;;;;;;2.67;2.67;;;;;29.71;27.79;100474.09;5028545;28;45457;-76
2023/03/06 16:08:44;;;;;;;;;3.00;3.00;;;;;29.71;28.39;100465.06;5029237;28;45631;-78
2023/03/06 16:11:22;;;;;;;;;3.00;3.00;;;;;29.74;28.08;100478.28;5043095;27;45680;-76
2023/03/06 16:13:48;;;;;;;;;2.67;2.00;;;;;29.70;28.15;100468.84;5076001;27;45386;-76
2023/03/06 16:16:18;;;;;;;;;2.00;2.00;;;;;29.71;27.71;100462.34;5075913;27;46036;-76
2023/03/06 16:18:44;;;;;;;;;6.33;2.33;;;;;29.68;27.68;100460.84;5072962;27;45792;-77
2023/03/06 16:21:10;;;;;;;;;6.00;3.00;;;;;29.63;28.30;100454.38;5069698;27;45612;-75
2023/03/06 16:23:37;;;;;;;;;4.00;3.00;;;;;29.59;27.56;100453.97;5073270;28;45594;-75
2023/03/06 16:26:04;;;;;;;;;3.67;3.67;;;;;29.54;27.92;100448.28;5073829;28;46342;-75
2023/03/06 16:28:31;;;;;;;;;3.67;3.00;;;;;29.52;27.55;100456.72;5073370;27;45770;-74
2023/03/06 16:30:56;;;;;;;;;5.33;2.33;;;;;29.51;27.69;100454.22;5070540;27;45619;-75
2023/03/06 16:33:22;;;;;;;;;2.00;2.00;;;;;29.50;27.93;100441.56;5069208;27;45808;-74
2023/03/06 16:35:48;;;;;;;;;4.00;3.67;;;;;29.48;27.79;100441.78;5070519;27;45388;-74
2023/03/06 16:38:14;;;;;;;;;3.33;3.33;;;;;29.50;27.63;100438.84;5065861;27;46107;-75
2023/03/06 16:40:41;;;;;;;;;3.00;2.33;;;;;29.46;27.63;100447.47;5074286;27;45482;-74
2023/03/06 16:43:07;;;;;;;;;6.33;4.00;;;;;29.50;28.05;100439.69;5074073;27;46337;-74
2023/03/06 16:45:38;;;;;;;;;4.33;4.00;;;;;29.49;28.07;100437.97;5074060;27;46358;-75
2023/03/06 16:48:04;;;;;;;;;2.33;2.33;;;;;29.50;28.23;100441.56;5070775;27;45485;-72
2023/03/06 16:50:37;;;;;;;;;3.00;3.00;;;;;29.46;27.61;100427.47;5077121;27;45474;-74
2023/03/06 16:53:02;;;;;;;;;3.00;2.67;;;;;29.48;28.15;100435.47;5074018;27;45624;-72
2023/03/06 16:55:28;;;;;;;;;2.00;2.00;;;;;29.43;27.89;100427.91;5076986;27;46069;-72
2023/03/06 16:57:53;;;;;;;;;5.00;4.00;;;;;29.39;27.53;100432.13;5072957;27;45751;-73
2023/03/06 17:00:21;;;;;;;;;4.00;4.00;;;;;29.29;27.34;100433.44;5076205;27;45740;-74
2023/03/06 17:02:47;;;;;;;;;3.33;3.00;;;;;29.17;26.91;100430.53;5075602;27;45415;-74
2023/03/06 17:05:13;;;;;;;;;5.00;3.00;;;;;29.08;27.00;100433.69;5075711;27;45991;-74
2023/03/06 17:07:39;;;;;;;;;2.00;2.00;;;;;28.97;27.07;100421.53;5075645;27;45561;-75
2023/03/06 17:10:06;;;;;;;;;4.00;3.33;;;;;28.88;26.72;100431.81;5075505;27;45492;-72
2023/03/06 17:12:32;;;;;;;;;7.33;5.00;;;;;28.77;27.07;100425.13;5072361;27;45508;-73
2023/03/06 17:14:57;;;;;;;;;6.00;6.00;;;;;28.70;26.75;100424.28;5071629;27;45474;-73
2023/03/06 17:17:22;;;;;;;;;6.33;6.00;;;;;28.62;26.29;100426.19;5068543;27;45676;-73
2023/03/06 17:19:49;;;;;;;;;6.67;5.00;;;;;28.60;26.91;100431.00;5076433;27;45426;-74
2023/03/06 17:22:16;;;;;;;;;5.00;4.00;;;;;28.56;26.92;100431.63;5068567;28;45446;-74
2023/03/06 17:24:42;;;;;;;;;3.00;3.00;;;;;28.52;26.87;100429.31;5074594;27;45858;-75
2023/03/06 17:27:08;;;;;;;;;6.67;6.00;;;;;28.52;26.28;100440.22;5076242;27;45442;-76
2023/03/06 17:29:33;;;;;;;;;9.00;7.33;;;;;28.50;26.38;100425.13;5065814;27;45762;-75
2023/03/06 17:31:59;;;;;;;;;7.33;5.00;;;;;28.49;26.08;100435.19;5072231;27;45343;-76
2023/03/06 17:34:24;;;;;;;;;6.00;6.00;;;;;28.47;26.71;100433.72;5063216;27;47253;-75
2023/03/06 17:36:49;;;;;;;;;5.33;5.00;;;;;28.47;26.88;100433.72;5075414;27;45788;-75
2023/03/06 17:39:15;;;;;;;;;7.00;5.00;;;;;28.46;26.10;100432.91;5072878;27;45663;-75
2023/03/06 17:41:41;;;;;;;;;6.00;5.33;;;;;28.45;26.80;100424.91;5073242;27;45449;-76
2023/03/06 17:44:06;;;;;;;;;6.33;5.00;;;;;28.45;26.60;100433.09;5068842;27;46117;-75
2023/03/06 17:46:33;;;;;;;;;5.67;5.67;;;;;28.43;26.09;100425.13;5071949;28;45339;-77
2023/03/06 17:48:58;;;;;;;;;7.00;4.33;;;;;28.44;26.34;100423.25;5061238;28;45647;-75
2023/03/06 17:51:24;;;;;;;;;6.33;6.33;;;;;28.43;26.76;100425.13;5066921;27;45471;-75
2023/03/06 17:53:51;;;;;;;;;8.67;6.00;;;;;28.40;26.18;100429.09;5070205;27;45522;-74
2023/03/06 17:56:16;;;;;;;;;6.00;6.00;;;;;28.43;26.58;100427.00;5070906;27;45709;-74
2023/03/06 17:58:42;;;;;;;;;6.33;6.33;;;;;28.41;26.54;100427.22;5060304;28;45640;-75
2023/03/06 18:01:22;;;;;;;;;6.67;6.00;;;;;28.39;26.02;100429.31;5068561;27;45507;-75
2023/03/06 18:03:48;;;;;;;;;5.33;5.33;;;;;28.38;26.08;100427.63;5073277;27;46323;-75
2023/03/06 18:06:15;;;;;;;;;8.67;8.67;;;;;28.35;26.09;100423.44;5070574;27;45442;-75
2023/03/06 18:08:40;;;;;;;;;5.00;5.00;;;;;28.33;26.49;100424.69;5074079;27;45443;-75
2023/03/06 18:11:08;;;;;;;;;7.00;6.33;;;;;28.29;25.78;100416.09;5074149;28;45556;-75
2023/03/06 18:13:36;;;;;;;;;10.33;7.33;;;;;28.27;26.41;100424.47;5065901;27;47016;-73
2023/03/06 18:16:03;;;;;;;;;9.67;8.67;;;;;28.25;26.13;100420.28;5073781;28;45392;-75
2023/03/06 18:18:28;;;;;;;;;7.33;7.33;;;;;28.25;26.72;100417.56;5082328;27;45815;-75
2023/03/06 18:20:54;;;;;;;;;11.33;10.00;;;;;28.25;26.35;100420.28;5059793;27;45807;-75
2023/03/06 18:23:19;;;;;;;;;8.33;8.33;;;;;28.24;26.62;100422.16;5075049;27;45956;-75
2023/03/06 18:25:45;;;;;;;;;7.33;7.33;;;;;28.24;26.43;100416.69;5064509;27;45584;-76
2023/03/06 18:28:11;;;;;;;;;11.33;10.67;;;;;28.22;25.94;100420.66;5057485;27;45502;-78
2023/03/06 18:30:40;;;;;;;;;7.67;7.67;;;;;28.18;26.18;100412.06;5087789;27;45519;-76
2023/03/06 18:33:06;;;;;;;;;10.00;8.67;;;;;28.17;26.20;100413.13;5073177;27;46480;-75
2023/03/06 18:35:35;;;;;;;;;9.00;9.00;;;;;28.18;26.51;100413.94;5080200;27;45421;-75
2023/03/06 18:38:00;;;;;;;;;10.00;10.00;;;;;28.14;25.94;100410.78;5067589;27;45456;-75
2023/03/06 18:40:26;;;;;;;;;9.67;9.67;;;;;28.14;25.87;100414.38;5067558;27;45503;-76
2023/03/06 18:42:53;;;;;;;;;11.33;8.33;;;;;28.12;25.82;100407.44;5071035;27;46110;-75
2023/03/06 18:45:18;;;;;;;;;16.33;12.00;;;;;28.13;25.96;100400.94;5074438;28;45475;-78
2023/03/06 18:47:44;;;;;;;;;16.00;13.67;;;;;28.09;26.04;100403.25;5061416;27;45515;-76
2023/03/06 18:50:15;;;;;;;;;12.33;11.33;;;;;28.11;26.01;100403.00;5068763;27;45480;-75
2023/03/06 18:52:40;;;;;;;;;11.33;11.00;;;;;28.09;26.32;100397.78;5080631;27;47528;-76
2023/03/06 18:55:06;;;;;;;;;10.67;10.33;;;;;28.09;25.98;100399.66;5051352;27;47436;-76
2023/03/06 18:57:31;;;;;;;;;13.67;12.00;;;;;28.07;25.78;100393.59;5070778;28;45447;-77
2023/03/06 18:59:56;;;;;;;;;12.67;12.67;;;;;28.08;26.29;100393.34;5072842;27;45419;-78
2023/03/06 19:02:22;;;;;;;;;11.00;11.00;;;;;28.07;25.76;100397.13;5069330;27;46055;-75
2023/03/06 19:04:47;;;;;;;;;17.67;13.33;;;;;28.07;26.28;100399.03;5068064;27;54438;-75
2023/03/06 19:07:12;;;;;;;;;13.33;12.33;;;;;28.06;25.59;100395.47;5076323;27;45521;-75
2023/03/06 19:09:38;;;;;;;;;12.00;11.33;;;;;28.04;26.04;100407.63;5063330;27;46348;-75
2023/03/06 19:12:03;;;;;;;;;13.67;12.67;;;;;28.01;26.27;100398.81;5071672;27;47684;-75
2023/03/06 19:14:29;;;;;;;;;12.33;11.00;;;;;28.01;26.43;100398.81;5068929;27;45466;-75
2023/03/06 19:16:54;;;;;;;;;11.67;10.00;;;;;27.99;25.86;100390.00;5069033;27;45399;-75
2023/03/06 19:19:24;;;;;;;;;14.00;12.00;;;;;27.98;25.72;100392.94;5066021;27;45555;-77
2023/03/06 19:21:50;;;;;;;;;16.33;12.33;;;;;28.01;26.10;100398.81;5061777;27;45953;-78
2023/03/06 19:24:15;;;;;;;;;13.33;12.33;;;;;27.96;26.42;100384.13;5066694;27;45414;-75
2023/03/06 19:26:41;;;;;;;;;11.00;10.33;;;;;28.00;26.01;100388.94;5071562;27;50285;-79
2023/03/06 19:29:06;;;;;;;;;10.33;9.00;;;;;27.97;26.51;100383.91;5074228;27;45536;-81
2023/03/06 19:31:32;;;;;;;;;8.00;7.00;;;;;27.97;26.33;100383.06;5073176;27;46136;-77
2023/03/06 19:33:57;;;;;;;;;12.00;12.00;;;;;27.96;26.21;100386.84;5071474;27;45521;-77
2023/03/06 19:36:27;;;;;;;;;12.00;10.33;;;;;27.97;26.56;100380.34;5068491;27;45461;-77